sensor_id;sensor_type;location;lat;lon;timestamp;temperature;humidity
3406;DHT22;10008;48.682;9.016;2023-04-25T00:02:18;8.50;99.90
3406;DHT22;10008;48.682;9.016;2023-04-25T00:04:44;8.50;99.90
3406;DHT22;10008;48.682;9.016;2023-04-25T00:07:10;8.40;99.90
3406;DHT22;10008;48.682;9.016;2023-04-25T00:09:36;8.50;99.90
3406;DHT22;10008;48.682;9.016;2023-04-25T00:12:02;8.60;99.90
3406;DHT22;10008;48.682;9.016;2023-04-25T00:14:29;8.50;99.90
3406;DHT22;10008;48.682;9.016;2023-04-25T00:16:55;8.40;99.90
3406;DHT22;10008;48.682;9.016;2023-04-25T00:19:20;8.50;99.90
3406;DHT22;10008;48.682;9.016;2023-04-25T00:21:46;8.50;99.90
3406;DHT22;10008;48.682;9.016;2023-04-25T00:24:12;8.50;99.90
3406;DHT22;10008;48.682;9.016;2023-04-25T00:26:38;8.50;99.90
3406;DHT22;10008;48.682;9.016;2023-04-25T00:29:04;8.60;99.90
3406;DHT22;10008;48.682;9.016;2023-04-25T00:31:30;8.50;99.90
3406;DHT22;10008;48.682;9.016;2023-04-25T00:33:56;8.40;99.90
3406;DHT22;10008;48.682;9.016;2023-04-25T00:36:22;8.40;99.90
3406;DHT22;10008;48.682;9.016;2023-04-25T00:38:47;8.40;99.90
3406;DHT22;10008;48.682;9.016;2023-04-25T00:41:13;8.40;99.90
3406;DHT22;10008;48.682;9.016;2023-04-25T00:43:40;8.40;99.90
3406;DHT22;10008;48.682;9.016;2023-04-25T00:46:06;8.40;99.90
3406;DHT22;10008;48.682;9.016;2023-04-25T00:48:31;8.30;99.90
3406;DHT22;10008;48.682;9.016;2023-04-25T00:50:58;8.40;99.90
3406;DHT22;10008;48.682;9.016;2023-04-25T00:53:26;8.20;99.90
3406;DHT22;10008;48.682;9.016;2023-04-25T00:55:53;8.30;99.90
3406;DHT22;10008;48.682;9.016;2023-04-25T00:58:22;8.20;99.90
3406;DHT22;10008;48.682;9.016;2023-04-25T01:00:49;8.20;99.90
3406;DHT22;10008;48.682;9.016;2023-04-25T01:03:16;8.30;99.90
3406;DHT22;10008;48.682;9.016;2023-04-25T01:05:45;8.20;99.90
3406;DHT22;10008;48.682;9.016;2023-04-25T01:08:11;8.30;99.90
3406;DHT22;10008;48.682;9.016;2023-04-25T01:10:37;8.30;99.90
3406;DHT22;10008;48.682;9.016;2023-04-25T01:13:03;8.30;99.90
3406;DHT22;10008;48.682;9.016;2023-04-25T01:15:29;8.30;99.90
3406;DHT22;10008;48.682;9.016;2023-04-25T01:17:55;8.30;99.90
3406;DHT22;10008;48.682;9.016;2023-04-25T01:20:22;8.10;99.90
3406;DHT22;10008;48.682;9.016;2023-04-25T01:22:50;7.80;99.90
3406;DHT22;10008;48.682;9.016;2023-04-25T01:25:16;7.60;99.90
3406;DHT22;10008;48.682;9.016;2023-04-25T01:27:42;7.50;99.90
3406;DHT22;10008;48.682;9.016;2023-04-25T01:30:09;7.20;99.90
3406;DHT22;10008;48.682;9.016;2023-04-25T01:32:36;7.10;99.90
3406;DHT22;10008;48.682;9.016;2023-04-25T01:35:06;6.90;99.90
3406;DHT22;10008;48.682;9.016;2023-04-25T01:37:42;6.70;99.90
3406;DHT22;10008;48.682;9.016;2023-04-25T01:40:11;6.60;99.90
3406;DHT22;10008;48.682;9.016;2023-04-25T01:42:39;6.60;99.90
3406;DHT22;10008;48.682;9.016;2023-04-25T01:45:07;6.60;99.90
3406;DHT22;10008;48.682;9.016;2023-04-25T01:47:33;6.60;99.90
3406;DHT22;10008;48.682;9.016;2023-04-25T01:50:02;6.60;99.90
3406;DHT22;10008;48.682;9.016;2023-04-25T01:52:28;6.60;99.90
3406;DHT22;10008;48.682;9.016;2023-04-25T01:54:55;6.50;99.90
3406;DHT22;10008;48.682;9.016;2023-04-25T01:57:22;6.50;99.90
3406;DHT22;10008;48.682;9.016;2023-04-25T01:59:48;6.50;99.90
3406;DHT22;10008;48.682;9.016;2023-04-25T02:02:37;6.60;99.90
3406;DHT22;10008;48.682;9.016;2023-04-25T02:05:06;6.60;99.90
3406;DHT22;10008;48.682;9.016;2023-04-25T02:07:35;6.60;99.90
3406;DHT22;10008;48.682;9.016;2023-04-25T02:10:01;6.60;99.90
3406;DHT22;10008;48.682;9.016;2023-04-25T02:12:31;6.70;99.90
3406;DHT22;10008;48.682;9.016;2023-04-25T02:15:15;6.70;99.90
3406;DHT22;10008;48.682;9.016;2023-04-25T02:17:50;6.70;99.90
3406;DHT22;10008;48.682;9.016;2023-04-25T02:20:20;6.70;99.90
3406;DHT22;10008;48.682;9.016;2023-04-25T02:22:47;6.70;99.90
3406;DHT22;10008;48.682;9.016;2023-04-25T02:25:13;6.70;99.90
3406;DHT22;10008;48.682;9.016;2023-04-25T02:27:38;6.70;99.90
3406;DHT22;10008;48.682;9.016;2023-04-25T02:30:05;6.70;99.90
3406;DHT22;10008;48.682;9.016;2023-04-25T02:32:33;6.70;99.90
3406;DHT22;10008;48.682;9.016;2023-04-25T02:35:00;6.80;99.90
3406;DHT22;10008;48.682;9.016;2023-04-25T02:37:30;6.70;99.90
3406;DHT22;10008;48.682;9.016;2023-04-25T02:39:56;6.80;99.90
3406;DHT22;10008;48.682;9.016;2023-04-25T02:42:22;6.80;99.90
3406;DHT22;10008;48.682;9.016;2023-04-25T02:44:49;6.80;99.90
3406;DHT22;10008;48.682;9.016;2023-04-25T02:47:14;6.80;99.90
3406;DHT22;10008;48.682;9.016;2023-04-25T02:49:42;6.70;99.90
3406;DHT22;10008;48.682;9.016;2023-04-25T02:52:08;6.80;99.90
3406;DHT22;10008;48.682;9.016;2023-04-25T02:54:34;6.70;99.90
3406;DHT22;10008;48.682;9.016;2023-04-25T02:57:01;6.70;99.90
3406;DHT22;10008;48.682;9.016;2023-04-25T02:59:32;6.70;99.90
3406;DHT22;10008;48.682;9.016;2023-04-25T03:01:58;6.80;99.90
3406;DHT22;10008;48.682;9.016;2023-04-25T03:04:24;6.80;99.90
3406;DHT22;10008;48.682;9.016;2023-04-25T03:06:51;6.80;99.90
3406;DHT22;10008;48.682;9.016;2023-04-25T03:09:19;6.80;99.90
3406;DHT22;10008;48.682;9.016;2023-04-25T03:11:46;6.90;99.90
3406;DHT22;10008;48.682;9.016;2023-04-25T03:14:12;7.00;99.90
3406;DHT22;10008;48.682;9.016;2023-04-25T03:16:38;7.00;99.90
3406;DHT22;10008;48.682;9.016;2023-04-25T03:19:05;7.00;99.90
3406;DHT22;10008;48.682;9.016;2023-04-25T03:21:33;7.10;99.90
3406;DHT22;10008;48.682;9.016;2023-04-25T03:24:00;7.10;99.90
3406;DHT22;10008;48.682;9.016;2023-04-25T03:26:26;7.10;99.90
3406;DHT22;10008;48.682;9.016;2023-04-25T03:28:52;7.10;99.90
3406;DHT22;10008;48.682;9.016;2023-04-25T03:31:18;7.20;99.90
3406;DHT22;10008;48.682;9.016;2023-04-25T03:33:44;7.20;99.90
3406;DHT22;10008;48.682;9.016;2023-04-25T03:36:10;7.20;99.90
3406;DHT22;10008;48.682;9.016;2023-04-25T03:38:36;7.10;99.90
3406;DHT22;10008;48.682;9.016;2023-04-25T03:41:02;7.10;99.90
3406;DHT22;10008;48.682;9.016;2023-04-25T03:43:46;7.10;99.90
3406;DHT22;10008;48.682;9.016;2023-04-25T03:46:13;7.00;99.90
3406;DHT22;10008;48.682;9.016;2023-04-25T03:48:39;7.00;99.90
3406;DHT22;10008;48.682;9.016;2023-04-25T03:51:06;7.00;99.90
3406;DHT22;10008;48.682;9.016;2023-04-25T03:53:35;7.00;99.90
3406;DHT22;10008;48.682;9.016;2023-04-25T03:56:24;7.10;99.90
3406;DHT22;10008;48.682;9.016;2023-04-25T03:58:58;7.10;99.90
3406;DHT22;10008;48.682;9.016;2023-04-25T04:01:25;7.10;99.90
3406;DHT22;10008;48.682;9.016;2023-04-25T04:03:52;7.10;99.90
3406;DHT22;10008;48.682;9.016;2023-04-25T04:06:17;7.10;99.90
3406;DHT22;10008;48.682;9.016;2023-04-25T04:08:47;7.10;99.90
3406;DHT22;10008;48.682;9.016;2023-04-25T04:11:13;7.10;99.90
3406;DHT22;10008;48.682;9.016;2023-04-25T04:13:39;7.20;99.90
3406;DHT22;10008;48.682;9.016;2023-04-25T04:16:06;7.30;99.90
3406;DHT22;10008;48.682;9.016;2023-04-25T04:18:31;7.20;99.90
3406;DHT22;10008;48.682;9.016;2023-04-25T04:20:59;7.20;99.90
3406;DHT22;10008;48.682;9.016;2023-04-25T04:23:27;7.10;99.90
3406;DHT22;10008;48.682;9.016;2023-04-25T04:25:54;7.10;99.90
3406;DHT22;10008;48.682;9.016;2023-04-25T04:28:29;7.00;99.90
3406;DHT22;10008;48.682;9.016;2023-04-25T04:31:11;7.00;99.90
3406;DHT22;10008;48.682;9.016;2023-04-25T04:33:38;7.00;99.90
3406;DHT22;10008;48.682;9.016;2023-04-25T04:36:05;6.90;99.90
3406;DHT22;10008;48.682;9.016;2023-04-25T04:38:33;6.80;99.90
3406;DHT22;10008;48.682;9.016;2023-04-25T04:41:02;6.80;99.90
3406;DHT22;10008;48.682;9.016;2023-04-25T04:43:40;6.80;99.90
3406;DHT22;10008;48.682;9.016;2023-04-25T04:46:24;6.80;99.90
3406;DHT22;10008;48.682;9.016;2023-04-25T04:49:25;7.00;99.90
3406;DHT22;10008;48.682;9.016;2023-04-25T04:52:30;7.10;99.90
3406;DHT22;10008;48.682;9.016;2023-04-25T04:55:21;7.10;99.90
3406;DHT22;10008;48.682;9.016;2023-04-25T04:58:02;7.30;99.90
3406;DHT22;10008;48.682;9.016;2023-04-25T05:00:46;7.40;99.90
3406;DHT22;10008;48.682;9.016;2023-04-25T05:03:35;7.60;99.90
3406;DHT22;10008;48.682;9.016;2023-04-25T05:06:27;7.80;99.90
3406;DHT22;10008;48.682;9.016;2023-04-25T05:09:13;7.90;99.90
3406;DHT22;10008;48.682;9.016;2023-04-25T05:11:53;8.00;99.90
3406;DHT22;10008;48.682;9.016;2023-04-25T05:14:37;8.00;99.90
3406;DHT22;10008;48.682;9.016;2023-04-25T05:17:28;8.00;99.90
3406;DHT22;10008;48.682;9.016;2023-04-25T05:20:14;7.90;99.90
3406;DHT22;10008;48.682;9.016;2023-04-25T05:22:58;7.90;99.90
3406;DHT22;10008;48.682;9.016;2023-04-25T05:25:41;7.80;99.90
3406;DHT22;10008;48.682;9.016;2023-04-25T05:28:26;7.70;99.90
3406;DHT22;10008;48.682;9.016;2023-04-25T05:31:10;7.60;99.90
3406;DHT22;10008;48.682;9.016;2023-04-25T05:34:02;7.60;99.90
3406;DHT22;10008;48.682;9.016;2023-04-25T06:26:03;7.60;99.90
3406;DHT22;10008;48.682;9.016;2023-04-25T06:28:31;9.20;99.90
3406;DHT22;10008;48.682;9.016;2023-04-25T06:30:56;9.00;99.90
3406;DHT22;10008;48.682;9.016;2023-04-25T06:33:22;8.80;99.90
3406;DHT22;10008;48.682;9.016;2023-04-25T06:35:50;8.80;99.90
3406;DHT22;10008;48.682;9.016;2023-04-25T06:38:20;8.70;99.90
3406;DHT22;10008;48.682;9.016;2023-04-25T06:40:49;8.60;99.90
3406;DHT22;10008;48.682;9.016;2023-04-25T06:43:16;8.50;99.90
3406;DHT22;10008;48.682;9.016;2023-04-25T06:46:02;8.50;99.90
3406;DHT22;10008;48.682;9.016;2023-04-25T06:48:30;8.60;99.90
3406;DHT22;10008;48.682;9.016;2023-04-25T06:50:57;8.60;99.90
3406;DHT22;10008;48.682;9.016;2023-04-25T06:53:24;8.40;99.90
3406;DHT22;10008;48.682;9.016;2023-04-25T06:55:55;8.40;99.90
3406;DHT22;10008;48.682;9.016;2023-04-25T06:58:22;8.30;99.90
3406;DHT22;10008;48.682;9.016;2023-04-25T07:01:06;8.30;99.90
3406;DHT22;10008;48.682;9.016;2023-04-25T07:03:32;8.40;99.90
3406;DHT22;10008;48.682;9.016;2023-04-25T07:06:03;8.40;99.90
3406;DHT22;10008;48.682;9.016;2023-04-25T07:08:30;8.40;99.90
3406;DHT22;10008;48.682;9.016;2023-04-25T07:10:57;8.20;99.90
3406;DHT22;10008;48.682;9.016;2023-04-25T07:13:22;8.20;99.90
3406;DHT22;10008;48.682;9.016;2023-04-25T07:15:48;8.30;99.90
3406;DHT22;10008;48.682;9.016;2023-04-25T07:18:16;8.20;99.90
3406;DHT22;10008;48.682;9.016;2023-04-25T07:20:42;8.20;99.90
3406;DHT22;10008;48.682;9.016;2023-04-25T07:23:08;8.40;99.90
3406;DHT22;10008;48.682;9.016;2023-04-25T07:25:34;8.10;99.90
3406;DHT22;10008;48.682;9.016;2023-04-25T07:28:01;8.10;99.90
3406;DHT22;10008;48.682;9.016;2023-04-25T07:30:27;8.00;99.90
3406;DHT22;10008;48.682;9.016;2023-04-25T07:32:53;8.00;99.90
3406;DHT22;10008;48.682;9.016;2023-04-25T07:35:19;7.90;99.90
3406;DHT22;10008;48.682;9.016;2023-04-25T07:37:46;7.80;99.90
3406;DHT22;10008;48.682;9.016;2023-04-25T07:40:15;7.70;99.90
3406;DHT22;10008;48.682;9.016;2023-04-25T07:42:55;7.60;99.90
3406;DHT22;10008;48.682;9.016;2023-04-25T07:45:28;7.60;99.90
3406;DHT22;10008;48.682;9.016;2023-04-25T07:47:54;7.50;99.90
3406;DHT22;10008;48.682;9.016;2023-04-25T07:50:21;7.50;99.90
3406;DHT22;10008;48.682;9.016;2023-04-25T07:52:46;7.50;99.90
3406;DHT22;10008;48.682;9.016;2023-04-25T07:55:18;7.50;99.90
3406;DHT22;10008;48.682;9.016;2023-04-25T07:58:01;7.50;99.90
3406;DHT22;10008;48.682;9.016;2023-04-25T08:00:29;7.50;99.90
3406;DHT22;10008;48.682;9.016;2023-04-25T08:03:13;7.40;99.90
3406;DHT22;10008;48.682;9.016;2023-04-25T08:05:41;7.40;99.90
3406;DHT22;10008;48.682;9.016;2023-04-25T08:08:07;7.20;99.90
3406;DHT22;10008;48.682;9.016;2023-04-25T08:10:33;7.10;99.90
3406;DHT22;10008;48.682;9.016;2023-04-25T08:12:59;7.20;99.90
3406;DHT22;10008;48.682;9.016;2023-04-25T08:15:26;7.20;99.90
3406;DHT22;10008;48.682;9.016;2023-04-25T08:17:51;7.20;99.90
3406;DHT22;10008;48.682;9.016;2023-04-25T15:19:21;7.20;99.90
3406;DHT22;10008;48.682;9.016;2023-04-25T15:21:47;13.30;99.90
3406;DHT22;10008;48.682;9.016;2023-04-25T15:24:13;13.20;98.40
3406;DHT22;10008;48.682;9.016;2023-04-25T15:26:40;13.30;99.90
3406;DHT22;10008;48.682;9.016;2023-04-25T15:29:06;13.10;99.10
3406;DHT22;10008;48.682;9.016;2023-04-25T15:31:32;12.80;99.00
3406;DHT22;10008;48.682;9.016;2023-04-25T15:33:57;12.60;99.90
3406;DHT22;10008;48.682;9.016;2023-04-25T15:36:23;12.60;99.90
3406;DHT22;10008;48.682;9.016;2023-04-25T15:38:49;12.40;99.90
3406;DHT22;10008;48.682;9.016;2023-04-25T15:41:15;12.10;99.90
3406;DHT22;10008;48.682;9.016;2023-04-25T15:43:40;11.90;99.90
3406;DHT22;10008;48.682;9.016;2023-04-25T15:46:06;11.90;99.90
3406;DHT22;10008;48.682;9.016;2023-04-25T15:48:32;11.70;99.90
3406;DHT22;10008;48.682;9.016;2023-04-25T15:50:58;11.70;99.90
3406;DHT22;10008;48.682;9.016;2023-04-25T15:53:24;11.60;99.90
3406;DHT22;10008;48.682;9.016;2023-04-25T15:55:50;11.70;99.90
3406;DHT22;10008;48.682;9.016;2023-04-25T15:58:16;11.70;99.90
3406;DHT22;10008;48.682;9.016;2023-04-25T16:00:42;11.50;99.90
3406;DHT22;10008;48.682;9.016;2023-04-25T16:03:08;11.40;99.90
3406;DHT22;10008;48.682;9.016;2023-04-25T16:05:34;11.20;99.90
3406;DHT22;10008;48.682;9.016;2023-04-25T16:07:59;11.10;99.90
3406;DHT22;10008;48.682;9.016;2023-04-25T16:10:25;11.30;99.90
3406;DHT22;10008;48.682;9.016;2023-04-25T16:12:51;11.20;99.90
3406;DHT22;10008;48.682;9.016;2023-04-25T16:15:17;11.00;99.90
3406;DHT22;10008;48.682;9.016;2023-04-25T16:17:43;10.80;99.90
3406;DHT22;10008;48.682;9.016;2023-04-25T16:20:09;10.80;99.90
3406;DHT22;10008;48.682;9.016;2023-04-25T16:22:41;10.80;99.90
3406;DHT22;10008;48.682;9.016;2023-04-25T16:25:08;10.70;99.90
3406;DHT22;10008;48.682;9.016;2023-04-25T16:27:34;10.80;99.90
3406;DHT22;10008;48.682;9.016;2023-04-25T16:30:03;10.80;99.90
3406;DHT22;10008;48.682;9.016;2023-04-25T16:32:29;10.80;99.90
3406;DHT22;10008;48.682;9.016;2023-04-25T16:34:55;10.80;99.90
3406;DHT22;10008;48.682;9.016;2023-04-25T16:37:22;10.70;99.90
3406;DHT22;10008;48.682;9.016;2023-04-25T16:39:48;10.70;99.90
3406;DHT22;10008;48.682;9.016;2023-04-25T16:42:14;10.80;99.90
3406;DHT22;10008;48.682;9.016;2023-04-25T16:44:40;10.70;99.90
3406;DHT22;10008;48.682;9.016;2023-04-25T16:47:05;10.70;99.90
3406;DHT22;10008;48.682;9.016;2023-04-25T16:49:31;10.50;99.90
3406;DHT22;10008;48.682;9.016;2023-04-25T16:51:57;10.30;99.90
3406;DHT22;10008;48.682;9.016;2023-04-25T16:54:23;10.20;99.90
3406;DHT22;10008;48.682;9.016;2023-04-25T16:56:50;10.30;99.90
3406;DHT22;10008;48.682;9.016;2023-04-25T16:59:17;10.20;99.90
3406;DHT22;10008;48.682;9.016;2023-04-25T17:01:42;10.10;99.90
3406;DHT22;10008;48.682;9.016;2023-04-25T17:04:08;10.20;99.90
3406;DHT22;10008;48.682;9.016;2023-04-25T17:06:34;10.00;99.90
3406;DHT22;10008;48.682;9.016;2023-04-25T17:09:00;10.00;99.90
3406;DHT22;10008;48.682;9.016;2023-04-25T17:11:26;10.00;99.90
3406;DHT22;10008;48.682;9.016;2023-04-25T17:13:51;10.00;99.90
3406;DHT22;10008;48.682;9.016;2023-04-25T17:16:21;9.90;99.90
3406;DHT22;10008;48.682;9.016;2023-04-25T17:18:50;9.80;99.90
3406;DHT22;10008;48.682;9.016;2023-04-25T17:21:17;9.90;99.90
3406;DHT22;10008;48.682;9.016;2023-04-25T17:23:43;9.80;99.90
3406;DHT22;10008;48.682;9.016;2023-04-25T17:26:12;9.80;99.90
3406;DHT22;10008;48.682;9.016;2023-04-25T17:28:38;9.80;99.90
3406;DHT22;10008;48.682;9.016;2023-04-25T17:31:04;9.70;99.90
3406;DHT22;10008;48.682;9.016;2023-04-25T17:33:30;9.60;99.90
3406;DHT22;10008;48.682;9.016;2023-04-25T17:35:56;9.60;99.90
3406;DHT22;10008;48.682;9.016;2023-04-25T17:38:21;9.50;99.90
3406;DHT22;10008;48.682;9.016;2023-04-25T17:40:47;9.40;99.90
3406;DHT22;10008;48.682;9.016;2023-04-25T17:43:13;9.40;99.90
3406;DHT22;10008;48.682;9.016;2023-04-25T17:45:38;9.20;99.90
3406;DHT22;10008;48.682;9.016;2023-04-25T17:48:04;9.20;99.90
3406;DHT22;10008;48.682;9.016;2023-04-25T17:50:31;9.30;99.90
3406;DHT22;10008;48.682;9.016;2023-04-25T17:52:56;9.20;99.90
3406;DHT22;10008;48.682;9.016;2023-04-25T18:40:57;9.20;99.90
3406;DHT22;10008;48.682;9.016;2023-04-25T18:43:22;8.20;99.90
3406;DHT22;10008;48.682;9.016;2023-04-25T18:45:48;8.10;99.90
3406;DHT22;10008;48.682;9.016;2023-04-25T18:48:14;8.10;99.90
3406;DHT22;10008;48.682;9.016;2023-04-25T18:50:39;8.00;99.90
3406;DHT22;10008;48.682;9.016;2023-04-25T18:53:08;7.90;99.90
3406;DHT22;10008;48.682;9.016;2023-04-25T18:55:33;7.70;99.90
3406;DHT22;10008;48.682;9.016;2023-04-25T18:57:59;7.70;99.90
3406;DHT22;10008;48.682;9.016;2023-04-25T19:00:25;7.60;99.90
3406;DHT22;10008;48.682;9.016;2023-04-25T19:02:51;7.50;99.90
3406;DHT22;10008;48.682;9.016;2023-04-25T19:05:17;7.50;99.90
3406;DHT22;10008;48.682;9.016;2023-04-25T19:07:42;7.50;99.90
3406;DHT22;10008;48.682;9.016;2023-04-25T19:10:09;7.60;99.90
3406;DHT22;10008;48.682;9.016;2023-04-25T19:12:35;7.60;99.90
3406;DHT22;10008;48.682;9.016;2023-04-25T19:15:01;7.40;99.90
3406;DHT22;10008;48.682;9.016;2023-04-25T19:17:27;7.40;99.90
3406;DHT22;10008;48.682;9.016;2023-04-25T19:19:53;7.50;99.90
3406;DHT22;10008;48.682;9.016;2023-04-25T19:22:19;7.50;99.90
3406;DHT22;10008;48.682;9.016;2023-04-25T19:24:45;7.50;99.90
3406;DHT22;10008;48.682;9.016;2023-04-25T19:27:10;7.60;99.90
3406;DHT22;10008;48.682;9.016;2023-04-25T19:29:37;7.50;99.90
3406;DHT22;10008;48.682;9.016;2023-04-25T19:32:08;7.50;99.90
3406;DHT22;10008;48.682;9.016;2023-04-25T19:34:34;7.50;99.90
3406;DHT22;10008;48.682;9.016;2023-04-25T19:37:01;7.50;99.90
3406;DHT22;10008;48.682;9.016;2023-04-25T19:39:26;7.60;99.90
3406;DHT22;10008;48.682;9.016;2023-04-25T19:41:53;7.40;99.90
3406;DHT22;10008;48.682;9.016;2023-04-25T19:44:19;7.40;99.90
3406;DHT22;10008;48.682;9.016;2023-04-25T19:46:44;7.60;99.90
3406;DHT22;10008;48.682;9.016;2023-04-25T19:49:11;7.60;99.90
3406;DHT22;10008;48.682;9.016;2023-04-25T19:51:37;7.60;99.90
3406;DHT22;10008;48.682;9.016;2023-04-25T19:54:02;7.60;99.90
3406;DHT22;10008;48.682;9.016;2023-04-25T19:56:28;7.70;99.90
3406;DHT22;10008;48.682;9.016;2023-04-25T19:58:54;7.80;99.90
3406;DHT22;10008;48.682;9.016;2023-04-25T20:01:23;7.80;99.90
3406;DHT22;10008;48.682;9.016;2023-04-25T20:03:48;7.70;99.90
3406;DHT22;10008;48.682;9.016;2023-04-25T20:06:17;7.70;99.90
3406;DHT22;10008;48.682;9.016;2023-04-25T20:08:43;7.70;99.90
3406;DHT22;10008;48.682;9.016;2023-04-25T20:11:09;7.70;99.90
3406;DHT22;10008;48.682;9.016;2023-04-25T20:13:36;7.60;99.90
3406;DHT22;10008;48.682;9.016;2023-04-25T20:16:02;7.60;99.90
3406;DHT22;10008;48.682;9.016;2023-04-25T20:18:27;7.50;99.90
3406;DHT22;10008;48.682;9.016;2023-04-25T20:20:54;7.50;99.90
3406;DHT22;10008;48.682;9.016;2023-04-25T20:23:20;7.50;99.90
3406;DHT22;10008;48.682;9.016;2023-04-25T20:25:46;7.50;99.90
3406;DHT22;10008;48.682;9.016;2023-04-25T20:28:12;6.70;99.90
3406;DHT22;10008;48.682;9.016;2023-04-25T20:30:38;7.40;99.90
3406;DHT22;10008;48.682;9.016;2023-04-25T20:33:04;7.30;99.90
3406;DHT22;10008;48.682;9.016;2023-04-25T20:35:31;7.30;99.90
3406;DHT22;10008;48.682;9.016;2023-04-25T20:37:57;7.30;99.90
3406;DHT22;10008;48.682;9.016;2023-04-25T20:40:23;7.30;99.90
3406;DHT22;10008;48.682;9.016;2023-04-25T20:42:49;7.20;99.90
3406;DHT22;10008;48.682;9.016;2023-04-25T20:45:16;7.20;99.90
3406;DHT22;10008;48.682;9.016;2023-04-25T20:47:42;7.10;99.90
3406;DHT22;10008;48.682;9.016;2023-04-25T20:50:09;7.20;99.90
3406;DHT22;10008;48.682;9.016;2023-04-25T20:52:35;7.30;99.90
3406;DHT22;10008;48.682;9.016;2023-04-25T20:55:03;7.30;99.90
3406;DHT22;10008;48.682;9.016;2023-04-25T20:57:30;7.20;99.90
3406;DHT22;10008;48.682;9.016;2023-04-25T20:59:56;7.20;99.90
3406;DHT22;10008;48.682;9.016;2023-04-25T21:02:22;7.30;99.90
3406;DHT22;10008;48.682;9.016;2023-04-25T21:04:48;7.30;99.90
3406;DHT22;10008;48.682;9.016;2023-04-25T21:07:14;7.20;99.90
3406;DHT22;10008;48.682;9.016;2023-04-25T21:09:40;7.20;99.90
3406;DHT22;10008;48.682;9.016;2023-04-25T21:12:10;7.10;99.90
3406;DHT22;10008;48.682;9.016;2023-04-25T21:14:36;7.10;99.90
3406;DHT22;10008;48.682;9.016;2023-04-25T21:17:02;7.10;99.90
3406;DHT22;10008;48.682;9.016;2023-04-25T21:19:29;7.20;99.90
3406;DHT22;10008;48.682;9.016;2023-04-25T21:21:55;7.20;99.90
3406;DHT22;10008;48.682;9.016;2023-04-25T21:24:21;7.20;99.90
3406;DHT22;10008;48.682;9.016;2023-04-25T21:26:46;7.20;99.90
3406;DHT22;10008;48.682;9.016;2023-04-25T21:29:12;7.30;99.90
3406;DHT22;10008;48.682;9.016;2023-04-25T21:31:38;7.30;99.90
3406;DHT22;10008;48.682;9.016;2023-04-25T21:34:04;7.30;99.90
3406;DHT22;10008;48.682;9.016;2023-04-25T21:36:31;7.30;99.90
3406;DHT22;10008;48.682;9.016;2023-04-25T21:38:58;7.30;99.90
3406;DHT22;10008;48.682;9.016;2023-04-25T21:41:24;7.30;99.90
3406;DHT22;10008;48.682;9.016;2023-04-25T21:43:51;7.20;99.90
3406;DHT22;10008;48.682;9.016;2023-04-25T21:46:16;7.20;99.90
3406;DHT22;10008;48.682;9.016;2023-04-25T21:48:42;7.30;99.90
3406;DHT22;10008;48.682;9.016;2023-04-25T21:51:08;7.40;99.90
3406;DHT22;10008;48.682;9.016;2023-04-25T21:53:33;7.30;99.90
3406;DHT22;10008;48.682;9.016;2023-04-25T21:55:59;7.40;99.90
3406;DHT22;10008;48.682;9.016;2023-04-25T21:58:25;7.40;99.90
3406;DHT22;10008;48.682;9.016;2023-04-25T22:00:52;7.40;99.90
3406;DHT22;10008;48.682;9.016;2023-04-25T22:03:18;7.30;99.90
3406;DHT22;10008;48.682;9.016;2023-04-25T22:05:44;7.30;99.90
3406;DHT22;10008;48.682;9.016;2023-04-25T22:08:10;7.40;99.90
3406;DHT22;10008;48.682;9.016;2023-04-25T22:10:35;7.40;99.90
3406;DHT22;10008;48.682;9.016;2023-04-25T22:13:03;9.20;99.90
3406;DHT22;10008;48.682;9.016;2023-04-25T22:15:30;7.30;99.90
3406;DHT22;10008;48.682;9.016;2023-04-25T22:17:55;7.30;99.90
3406;DHT22;10008;48.682;9.016;2023-04-25T22:20:22;9.00;99.90
3406;DHT22;10008;48.682;9.016;2023-04-25T22:22:51;7.40;99.90
3406;DHT22;10008;48.682;9.016;2023-04-25T22:25:17;7.20;99.90
3406;DHT22;10008;48.682;9.016;2023-04-25T22:27:43;7.20;99.90
3406;DHT22;10008;48.682;9.016;2023-04-25T22:30:10;7.30;99.90
3406;DHT22;10008;48.682;9.016;2023-04-25T22:32:39;7.20;99.90
3406;DHT22;10008;48.682;9.016;2023-04-25T22:35:06;8.40;99.90
3406;DHT22;10008;48.682;9.016;2023-04-25T22:37:32;7.20;99.90
3406;DHT22;10008;48.682;9.016;2023-04-25T22:39:58;8.20;99.90
3406;DHT22;10008;48.682;9.016;2023-04-25T22:42:23;7.20;99.90
3406;DHT22;10008;48.682;9.016;2023-04-25T22:44:49;9.10;99.90
3406;DHT22;10008;48.682;9.016;2023-04-25T22:47:16;7.30;99.90
3406;DHT22;10008;48.682;9.016;2023-04-25T22:49:42;8.20;99.90
3406;DHT22;10008;48.682;9.016;2023-04-25T22:52:09;7.40;99.90
3406;DHT22;10008;48.682;9.016;2023-04-25T22:54:36;7.30;99.90
3406;DHT22;10008;48.682;9.016;2023-04-25T22:57:06;9.40;99.90
3406;DHT22;10008;48.682;9.016;2023-04-25T22:59:32;7.30;99.90
3406;DHT22;10008;48.682;9.016;2023-04-25T23:02:01;7.30;99.90
3406;DHT22;10008;48.682;9.016;2023-04-25T23:04:27;9.00;99.90
3406;DHT22;10008;48.682;9.016;2023-04-25T23:06:52;9.00;99.90
3406;DHT22;10008;48.682;9.016;2023-04-25T23:09:18;7.30;99.90
3406;DHT22;10008;48.682;9.016;2023-04-25T23:11:44;7.30;99.90
3406;DHT22;10008;48.682;9.016;2023-04-25T23:14:10;7.30;99.90
3406;DHT22;10008;48.682;9.016;2023-04-25T23:16:36;8.00;99.90
3406;DHT22;10008;48.682;9.016;2023-04-25T23:19:01;7.20;99.90
3406;DHT22;10008;48.682;9.016;2023-04-25T23:21:27;9.10;99.90
3406;DHT22;10008;48.682;9.016;2023-04-25T23:23:53;7.20;99.90
3406;DHT22;10008;48.682;9.016;2023-04-25T23:26:19;7.30;99.90
3406;DHT22;10008;48.682;9.016;2023-04-25T23:28:47;9.20;99.90
3406;DHT22;10008;48.682;9.016;2023-04-25T23:31:13;7.30;99.90
3406;DHT22;10008;48.682;9.016;2023-04-25T23:33:39;7.20;99.90
3406;DHT22;10008;48.682;9.016;2023-04-25T23:36:05;7.10;99.90
3406;DHT22;10008;48.682;9.016;2023-04-25T23:38:31;7.10;99.90
3406;DHT22;10008;48.682;9.016;2023-04-25T23:40:57;7.20;99.90
3406;DHT22;10008;48.682;9.016;2023-04-25T23:43:23;7.20;99.90
3406;DHT22;10008;48.682;9.016;2023-04-25T23:45:49;7.20;99.90
3406;DHT22;10008;48.682;9.016;2023-04-25T23:48:14;7.30;99.90
3406;DHT22;10008;48.682;9.016;2023-04-25T23:50:41;8.80;99.90
3406;DHT22;10008;48.682;9.016;2023-04-25T23:53:09;8.10;99.90
3406;DHT22;10008;48.682;9.016;2023-04-25T23:55:35;7.20;99.90
3406;DHT22;10008;48.682;9.016;2023-04-25T23:58:01;8.40;99.90
